createdAt,value
2022-08-02T03:44:58.815Z,100330.16
2022-08-02T03:48:03.406Z,100330.16
2022-08-02T03:51:26.646Z,100321.50
2022-08-02T03:54:34.774Z,100329.59
2022-08-02T03:57:48.289Z,100335.22
2022-08-02T04:00:53.636Z,100333.78
2022-08-02T04:03:56.326Z,100345.84
2022-08-02T04:06:58.639Z,100342.34
2022-08-02T04:10:02.648Z,100348.66
2022-08-02T04:13:05.445Z,100346.25
2022-08-02T04:16:18.461Z,100341.16
2022-08-02T04:19:30.516Z,100343.53
2022-08-02T04:22:45.745Z,100347.19
2022-08-02T04:25:48.573Z,100349.56
2022-08-02T04:28:54.690Z,100353.06
2022-08-02T04:31:57.474Z,100357.91
2022-08-02T04:35:18.703Z,100361.63
2022-08-02T04:38:23.485Z,100360.22
2022-08-02T04:41:44.019Z,100362.13
2022-08-02T04:44:46.796Z,100363.88
2022-08-02T04:48:03.287Z,100362.28
2022-08-02T04:51:06.861Z,100368.53
2022-08-02T04:54:10.698Z,100367.03
2022-08-02T04:57:31.628Z,100363.38
2022-08-02T05:00:35.147Z,100359.22
2022-08-02T05:03:37.707Z,100367.47
2022-08-02T05:06:40.281Z,100365.31
2022-08-02T05:09:42.703Z,100368.41
2022-08-02T05:12:45.418Z,100380.34
2022-08-02T05:15:51.438Z,100379.59
2022-08-02T05:18:54.028Z,100393.53
2022-08-02T05:21:56.478Z,100388.75
2022-08-02T05:24:59.089Z,100394.69
2022-08-02T05:28:01.434Z,100397.09
2022-08-02T05:31:04.230Z,100398.00
2022-08-02T05:34:12.869Z,100402.59
2022-08-02T05:37:15.491Z,100419.34
2022-08-02T05:40:25.630Z,100418.97
2022-08-02T05:43:28.705Z,100420.47
2022-08-02T05:46:31.447Z,100410.44
2022-08-02T05:49:34.164Z,100411.00
2022-08-02T05:52:48.720Z,100426.13
2022-08-02T05:56:24.375Z,100432.19
2022-08-02T05:59:32.416Z,100422.56
2022-08-02T06:02:41.275Z,100420.84
2022-08-02T06:05:58.445Z,100422.34
2022-08-02T06:09:04.183Z,100424.91
2022-08-02T06:12:11.714Z,100433.47
2022-08-02T06:15:16.954Z,100428.78
2022-08-02T06:18:20.076Z,100428.47
2022-08-02T06:22:29.704Z,100427.94
2022-08-02T06:24:56.662Z,100431.81
2022-08-02T06:28:01.100Z,100430.47
2022-08-02T06:31:06.631Z,100427.16
2022-08-02T06:34:08.979Z,100436.38
2022-08-02T06:37:26.302Z,100434.41
2022-08-02T06:40:41.179Z,100437.91
2022-08-02T06:43:54.153Z,100437.69
2022-08-02T06:47:12.126Z,100439.53
2022-08-02T06:50:15.849Z,100439.22
2022-08-02T06:53:18.505Z,100445.78
2022-08-02T06:56:21.751Z,100447.94
2022-08-02T06:59:24.314Z,100443.72
2022-08-02T07:02:27.278Z,100441.63
2022-08-02T07:05:29.697Z,100449.81
2022-08-02T07:08:32.875Z,100442.88
2022-08-02T07:11:35.207Z,100439.50
2022-08-02T07:14:37.838Z,100435.62
2022-08-02T07:17:40.180Z,100427.97
2022-08-02T07:20:43.476Z,100437.88
2022-08-02T07:23:45.940Z,100437.78
2022-08-02T07:27:10.058Z,100441.66
2022-08-02T07:30:12.060Z,100436.91
2022-08-02T07:33:37.767Z,100439.47
2022-08-02T07:36:37.279Z,100436.13
2022-08-02T07:39:41.021Z,100437.13
2022-08-02T07:42:54.534Z,100443.81
2022-08-02T07:46:01.082Z,100434.00
2022-08-02T07:49:04.582Z,100432.38
2022-08-02T07:52:07.388Z,100425.69
2022-08-02T07:55:11.273Z,100428.28
2022-08-02T07:58:14.079Z,100422.28
2022-08-02T08:01:17.038Z,100422.69
2022-08-02T08:04:20.063Z,100424.75
2022-08-02T08:07:23.159Z,100420.03
2022-08-02T08:10:26.454Z,100418.47
2022-08-02T08:13:28.829Z,100414.09
2022-08-02T08:16:31.395Z,100425.12
2022-08-02T08:19:50.908Z,100425.22
2022-08-02T08:22:54.665Z,100429.63
2022-08-02T08:25:57.149Z,100437.75
2022-08-02T08:29:00.553Z,100433.44
2022-08-02T08:32:02.975Z,100440.00
2022-08-02T08:35:06.949Z,100438.25
2022-08-02T08:38:09.592Z,100446.75
2022-08-02T08:41:12.395Z,100438.41
2022-08-02T08:44:14.782Z,100440.34
2022-08-02T08:47:17.850Z,100445.41
2022-08-02T08:50:25.814Z,100442.72
2022-08-02T08:53:36.860Z,100447.75
2022-08-02T08:56:40.598Z,100445.00
2022-08-02T08:59:45.895Z,100439.91
2022-08-02T09:02:49.293Z,100449.09
2022-08-02T09:05:52.090Z,100461.94
2022-08-02T09:08:54.366Z,100447.34
2022-08-02T09:12:14.411Z,100450.75
2022-08-02T09:15:24.957Z,100455.31
2022-08-02T09:18:39.706Z,100447.13
2022-08-02T09:21:42.003Z,100459.41
2022-08-02T09:24:47.300Z,100452.25
2022-08-02T09:27:50.352Z,100450.78
2022-08-02T09:30:57.042Z,100449.09
2022-08-02T09:34:00.498Z,100453.00
2022-08-02T09:37:03.597Z,100455.69
2022-08-02T09:40:10.271Z,100453.47
2022-08-02T09:43:13.006Z,100453.75
2022-08-02T09:46:22.850Z,100453.19
2022-08-02T09:49:27.293Z,100452.03
2022-08-02T09:52:36.995Z,100445.16
2022-08-02T09:55:56.279Z,100440.78
2022-08-02T09:59:07.273Z,100434.31
2022-08-02T10:02:17.515Z,100429.53
2022-08-02T10:05:21.303Z,100427.03
2022-08-02T10:08:41.230Z,100433.28
2022-08-02T10:11:44.246Z,100426.81
2022-08-02T10:14:49.549Z,100431.97
2022-08-02T10:17:52.597Z,100423.66
2022-08-02T10:20:58.074Z,100414.06
2022-08-02T10:24:07.024Z,100423.69
2022-08-02T10:27:20.686Z,100415.56
2022-08-02T10:30:26.938Z,100412.00
2022-08-02T10:33:30.751Z,100409.69
2022-08-02T10:36:35.001Z,100411.50
2022-08-02T10:39:42.654Z,100398.34
2022-08-02T10:42:48.270Z,100393.13
2022-08-02T10:45:50.932Z,100387.62
2022-08-02T10:49:23.946Z,100397.31
2022-08-02T10:52:28.417Z,100380.56
2022-08-02T10:55:45.285Z,100389.13
2022-08-02T10:58:47.695Z,100380.97
2022-08-02T11:01:50.548Z,100382.06
2022-08-02T11:04:55.746Z,100378.38
2022-08-02T11:07:58.503Z,100387.28
2022-08-02T11:11:54.279Z,100387.16
2022-08-02T11:14:59.156Z,100374.59
2022-08-02T11:18:01.611Z,100364.47
2022-08-02T11:21:24.663Z,100372.03
2022-08-02T11:24:28.649Z,100371.75
2022-08-02T11:27:31.299Z,100369.25
2022-08-02T11:30:34.022Z,100366.19
2022-08-02T11:33:37.286Z,100357.09
2022-08-02T11:36:51.030Z,100358.63
2022-08-02T11:39:53.682Z,100350.94
2022-08-02T11:42:55.998Z,100356.59
2022-08-02T11:46:02.951Z,100360.91
2022-08-02T11:49:18.186Z,100364.47
2022-08-02T11:52:33.346Z,100357.12
2022-08-02T11:56:02.815Z,100356.78
2022-08-02T11:59:26.846Z,100365.63
2022-08-02T12:02:31.650Z,100359.25
2022-08-02T12:06:03.880Z,100352.34
2022-08-02T12:09:18.653Z,100349.97
2022-08-02T12:12:21.966Z,100359.88
2022-08-02T12:15:31.587Z,100350.31
2022-08-02T12:18:52.992Z,100348.97
2022-08-02T12:22:17.638Z,100341.47
2022-08-02T12:25:33.907Z,100347.75
2022-08-02T12:28:40.166Z,100350.03
2022-08-02T12:31:55.628Z,100343.94
2022-08-02T12:35:09.038Z,100347.12
2022-08-02T12:38:13.167Z,100337.94
2022-08-02T12:41:30.994Z,100333.62
2022-08-02T12:44:38.145Z,100335.66
2022-08-02T12:47:49.514Z,100335.75
2022-08-02T12:50:52.227Z,100328.37
2022-08-02T12:54:10.481Z,100338.44
2022-08-02T12:57:15.000Z,100331.56
2022-08-02T13:00:29.662Z,100331.78
2022-08-02T13:04:10.124Z,100321.53
2022-08-02T13:06:54.751Z,100328.00
2022-08-02T13:10:02.860Z,100326.69
2022-08-02T13:13:06.093Z,100315.31
2022-08-02T13:16:10.577Z,100322.78
2022-08-02T13:19:16.725Z,100313.19
2022-08-02T13:22:19.355Z,100302.94
2022-08-02T13:25:23.066Z,100309.59
2022-08-02T13:28:26.058Z,100307.56
2022-08-02T13:31:36.657Z,100303.47
2022-08-02T13:34:40.173Z,100310.88
2022-08-02T13:37:42.664Z,100308.37
2022-08-02T13:41:05.189Z,100308.75
2022-08-02T13:44:11.155Z,100306.03
2022-08-02T13:47:14.006Z,100307.22
2022-08-02T13:50:16.897Z,100296.97
2022-08-02T13:53:19.913Z,100300.12
2022-08-02T13:56:35.597Z,100294.78
2022-08-02T13:59:56.419Z,100302.97
2022-08-02T14:03:01.074Z,100296.59
2022-08-02T14:06:03.966Z,100304.06
2022-08-02T14:09:06.408Z,100297.63
2022-08-02T14:12:10.591Z,100287.56
2022-08-02T14:15:13.316Z,100289.16
2022-08-02T14:18:16.494Z,100279.62
2022-08-02T14:21:18.809Z,100286.62
2022-08-02T14:24:21.757Z,100283.22
2022-08-02T14:27:24.581Z,100275.94
2022-08-02T14:30:27.443Z,100276.91
2022-08-02T14:33:29.814Z,100278.91
2022-08-02T14:36:32.609Z,100287.87
2022-08-02T14:39:43.386Z,100276.59
2022-08-02T14:42:57.885Z,100268.84
2022-08-02T14:46:00.346Z,100276.56
2022-08-02T14:49:05.014Z,100279.28
2022-08-02T14:52:07.943Z,100277.94
2022-08-02T14:55:14.174Z,100283.63
2022-08-02T14:58:19.433Z,100279.00
2022-08-02T15:01:26.020Z,100286.50
2022-08-02T15:04:29.167Z,100285.59
2022-08-02T15:07:45.277Z,100281.97
2022-08-02T15:10:50.940Z,100281.25
2022-08-02T15:13:53.593Z,100283.97
2022-08-02T15:16:58.526Z,100288.63
2022-08-02T15:20:24.465Z,100284.72
2022-08-02T15:23:25.196Z,100285.94
2022-08-02T15:26:40.268Z,100289.31
2022-08-02T15:29:44.535Z,100276.56
2022-08-02T15:32:53.221Z,100278.66
2022-08-02T15:35:56.122Z,100285.13
2022-08-02T15:38:58.833Z,100276.00
2022-08-02T15:42:01.312Z,100280.19
2022-08-02T15:45:04.222Z,100275.91
2022-08-02T15:48:07.945Z,100268.22
2022-08-02T15:51:10.825Z,100281.09
2022-08-02T15:54:13.182Z,100274.19
2022-08-02T15:57:15.780Z,100278.56
2022-08-02T16:00:19.210Z,100282.78
2022-08-02T16:03:22.235Z,100277.81
2022-08-02T16:06:25.312Z,100287.03
2022-08-02T16:09:28.035Z,100279.81
2022-08-02T16:12:32.433Z,100282.94
2022-08-02T16:15:35.766Z,100290.03
2022-08-02T16:18:38.139Z,100280.66
2022-08-02T16:21:40.940Z,100284.41
2022-08-02T16:24:43.316Z,100277.97
2022-08-02T16:27:57.844Z,100288.63
2022-08-02T16:31:11.252Z,100288.37
2022-08-02T16:34:14.823Z,100295.50
2022-08-02T16:37:17.206Z,100290.94
2022-08-02T16:40:24.684Z,100293.44
2022-08-02T16:43:27.778Z,100297.84
2022-08-02T16:46:32.363Z,100291.78
2022-08-02T16:50:04.442Z,100292.00
2022-08-02T16:52:58.243Z,100287.63
2022-08-02T16:56:00.929Z,100290.94
2022-08-02T16:59:03.903Z,100287.63
2022-08-02T17:02:15.284Z,100292.00
2022-08-02T17:05:21.419Z,100289.69
2022-08-02T17:08:23.895Z,100286.38
2022-08-02T17:11:37.595Z,100294.25
2022-08-02T17:14:55.536Z,100292.97
2022-08-02T17:17:58.673Z,100301.53
2022-08-02T17:21:04.708Z,100302.53
2022-08-02T17:24:08.671Z,100303.53
2022-08-02T17:27:11.683Z,100312.09
2022-08-02T17:30:15.580Z,100311.00
2022-08-02T17:33:18.151Z,100306.62
2022-08-02T17:36:20.828Z,100319.69
2022-08-02T17:39:23.122Z,100315.25
2022-08-02T17:42:26.240Z,100321.00
2022-08-02T17:46:01.049Z,100323.47
2022-08-02T17:49:11.172Z,100324.84
2022-08-02T17:52:51.812Z,100329.91
2022-08-02T17:55:42.287Z,100333.13
2022-08-02T17:58:53.671Z,100328.56
2022-08-02T18:02:01.264Z,100345.50
2022-08-02T18:05:11.667Z,100339.19
2022-08-02T18:08:16.152Z,100338.66
2022-08-02T18:11:51.756Z,100345.72
2022-08-02T18:14:46.137Z,100350.13
2022-08-02T18:17:52.111Z,100353.47
2022-08-02T18:20:58.631Z,100361.25
2022-08-02T18:24:19.278Z,100359.03
2022-08-02T18:27:26.402Z,100362.59
2022-08-02T18:30:29.289Z,100364.06
2022-08-02T18:33:57.502Z,100363.22
2022-08-02T18:36:54.734Z,100367.13
2022-08-02T18:39:57.239Z,100366.28
2022-08-02T18:42:59.754Z,100364.81
2022-08-02T18:46:16.006Z,100374.78
2022-08-02T18:49:19.683Z,100364.94
2022-08-02T18:52:31.138Z,100378.63
2022-08-02T18:56:02.946Z,100377.69
2022-08-02T18:58:58.182Z,100374.62
2022-08-02T19:02:00.889Z,100380.94
2022-08-02T19:05:03.852Z,100388.97
2022-08-02T19:08:09.802Z,100384.19
2022-08-02T19:11:13.506Z,100391.44
2022-08-02T19:14:24.059Z,100391.34
2022-08-02T19:17:54.851Z,100391.72
2022-08-02T19:20:52.622Z,100391.66
2022-08-02T19:23:56.027Z,100393.63
2022-08-02T19:26:58.629Z,100399.16
2022-08-02T19:30:16.286Z,100393.97
2022-08-02T19:33:24.796Z,100408.69
2022-08-02T19:36:27.624Z,100405.75
2022-08-02T19:39:30.703Z,100410.16
2022-08-02T19:42:33.194Z,100399.66
2022-08-02T19:45:57.129Z,100411.75
2022-08-02T19:49:01.247Z,100400.69
2022-08-02T19:52:21.211Z,100400.78
2022-08-02T19:56:01.623Z,100403.06
2022-08-02T19:58:47.022Z,100400.72
2022-08-02T20:01:50.511Z,100394.06
2022-08-02T20:04:53.442Z,100403.03
2022-08-02T20:07:58.162Z,100399.72
2022-08-02T20:11:00.918Z,100397.06
2022-08-02T20:14:05.758Z,100395.06
2022-08-02T20:17:11.491Z,100399.09
2022-08-02T20:20:13.938Z,100400.94
2022-08-02T20:23:33.329Z,100402.78
2022-08-02T20:26:39.617Z,100393.22
2022-08-02T20:29:50.173Z,100403.16
2022-08-02T20:32:58.850Z,100402.31
2022-08-02T20:36:05.683Z,100406.00
2022-08-02T20:39:08.071Z,100403.16
2022-08-02T20:42:22.847Z,100402.69
2022-08-02T20:45:27.242Z,100406.53
2022-08-02T20:48:31.162Z,100417.25
2022-08-02T20:51:33.988Z,100428.69
2022-08-02T20:54:36.652Z,100431.84
2022-08-02T20:57:48.710Z,100425.81
2022-08-02T21:01:01.624Z,100431.00
2022-08-02T21:04:04.132Z,100416.78
2022-08-02T21:07:07.157Z,100424.81
2022-08-02T21:10:15.795Z,100423.81
2022-08-02T21:13:23.155Z,100416.59
2022-08-02T21:16:25.885Z,100421.81
2022-08-02T21:19:30.060Z,100433.03
2022-08-02T21:22:32.726Z,100426.47
2022-08-02T21:25:42.451Z,100430.16
2022-08-02T21:28:53.511Z,100423.78
2022-08-02T21:31:56.638Z,100430.13
2022-08-02T21:34:58.953Z,100428.81
2022-08-02T21:38:01.523Z,100424.59
2022-08-02T21:41:06.090Z,100426.59
2022-08-02T21:44:19.193Z,100418.38
2022-08-02T21:47:27.391Z,100414.84
2022-08-02T21:50:30.287Z,100414.34
2022-08-02T21:53:42.635Z,100408.00
2022-08-02T21:56:52.795Z,100414.00
2022-08-02T21:59:56.109Z,100412.69
2022-08-02T22:02:59.109Z,100415.31
2022-08-02T22:06:21.943Z,100409.13
2022-08-02T22:09:44.276Z,100413.81
2022-08-02T22:12:48.021Z,100416.47
2022-08-02T22:15:50.663Z,100416.97
2022-08-02T22:18:54.014Z,100424.44
2022-08-02T22:21:58.929Z,100420.94
2022-08-02T22:25:01.424Z,100422.28
2022-08-02T22:28:39.342Z,100417.22
2022-08-02T22:31:41.874Z,100419.09
2022-08-02T22:34:52.025Z,100430.16
2022-08-02T22:38:16.238Z,100438.00
2022-08-02T22:41:17.777Z,100433.47
2022-08-02T22:44:20.560Z,100436.75
2022-08-02T22:47:22.893Z,100439.09
2022-08-02T22:50:31.824Z,100437.53
2022-08-02T22:53:35.475Z,100442.16
2022-08-02T22:56:38.938Z,100449.63
2022-08-02T22:59:46.966Z,100448.13
2022-08-02T23:02:51.105Z,100451.19
2022-08-02T23:05:53.765Z,100449.56
2022-08-02T23:08:56.378Z,100460.75
2022-08-02T23:11:58.680Z,100450.34
2022-08-02T23:15:01.504Z,100451.66
2022-08-02T23:18:22.226Z,100442.09
2022-08-02T23:21:45.576Z,100453.63
2022-08-02T23:24:48.403Z,100459.47
2022-08-02T23:27:51.404Z,100451.00
2022-08-02T23:30:53.862Z,100451.78
2022-08-02T23:34:03.989Z,100453.78
2022-08-02T23:37:07.152Z,100452.56
2022-08-02T23:40:10.225Z,100453.94
2022-08-02T23:43:14.955Z,100447.16
2022-08-02T23:46:17.948Z,100452.56
2022-08-02T23:49:21.670Z,100440.22
2022-08-02T23:52:24.874Z,100436.84
2022-08-02T23:55:27.230Z,100439.66
2022-08-02T23:58:32.910Z,100446.00
